sensor_id;sensor_type;location;lat;lon;timestamp;temperature;humidity
52034;DHT22;38045;52.988;6.536;2023-03-23T00:01:48;11.20;99.90
52034;DHT22;38045;52.988;6.536;2023-03-23T00:04:16;11.30;99.90
52034;DHT22;38045;52.988;6.536;2023-03-23T00:06:42;11.30;99.90
52034;DHT22;38045;52.988;6.536;2023-03-23T00:09:12;11.30;99.90
52034;DHT22;38045;52.988;6.536;2023-03-23T00:11:37;11.30;99.90
52034;DHT22;38045;52.988;6.536;2023-03-23T00:14:04;11.40;99.90
52034;DHT22;38045;52.988;6.536;2023-03-23T00:16:32;11.40;99.90
52034;DHT22;38045;52.988;6.536;2023-03-23T00:19:00;11.50;99.90
52034;DHT22;38045;52.988;6.536;2023-03-23T00:21:30;11.50;99.90
52034;DHT22;38045;52.988;6.536;2023-03-23T00:24:14;11.50;99.90
52034;DHT22;38045;52.988;6.536;2023-03-23T00:26:47;11.50;99.90
52034;DHT22;38045;52.988;6.536;2023-03-23T00:29:15;11.60;99.90
52034;DHT22;38045;52.988;6.536;2023-03-23T00:31:41;11.50;99.90
52034;DHT22;38045;52.988;6.536;2023-03-23T00:34:13;11.50;99.90
52034;DHT22;38045;52.988;6.536;2023-03-23T00:36:48;11.50;99.90
52034;DHT22;38045;52.988;6.536;2023-03-23T00:39:15;11.50;99.90
52034;DHT22;38045;52.988;6.536;2023-03-23T00:41:42;11.50;99.90
52034;DHT22;38045;52.988;6.536;2023-03-23T00:44:08;11.50;99.90
52034;DHT22;38045;52.988;6.536;2023-03-23T00:46:34;11.50;99.90
52034;DHT22;38045;52.988;6.536;2023-03-23T00:49:14;11.50;99.90
52034;DHT22;38045;52.988;6.536;2023-03-23T00:51:41;11.50;99.90
52034;DHT22;38045;52.988;6.536;2023-03-23T00:54:07;11.60;99.90
52034;DHT22;38045;52.988;6.536;2023-03-23T00:56:33;11.50;99.90
52034;DHT22;38045;52.988;6.536;2023-03-23T00:59:00;11.60;99.90
52034;DHT22;38045;52.988;6.536;2023-03-23T01:01:26;11.60;99.90
52034;DHT22;38045;52.988;6.536;2023-03-23T01:03:51;11.60;99.90
52034;DHT22;38045;52.988;6.536;2023-03-23T01:06:27;11.60;99.90
52034;DHT22;38045;52.988;6.536;2023-03-23T01:08:53;11.60;99.90
52034;DHT22;38045;52.988;6.536;2023-03-23T01:11:19;11.60;99.90
52034;DHT22;38045;52.988;6.536;2023-03-23T01:13:45;11.60;99.90
52034;DHT22;38045;52.988;6.536;2023-03-23T01:16:11;11.60;99.90
52034;DHT22;38045;52.988;6.536;2023-03-23T01:18:38;11.70;99.90
52034;DHT22;38045;52.988;6.536;2023-03-23T01:21:05;11.70;99.90
52034;DHT22;38045;52.988;6.536;2023-03-23T01:23:32;11.70;99.90
52034;DHT22;38045;52.988;6.536;2023-03-23T01:26:03;11.70;99.90
52034;DHT22;38045;52.988;6.536;2023-03-23T01:28:28;11.60;99.90
52034;DHT22;38045;52.988;6.536;2023-03-23T01:31:00;11.60;99.90
52034;DHT22;38045;52.988;6.536;2023-03-23T01:33:25;11.60;99.90
52034;DHT22;38045;52.988;6.536;2023-03-23T01:35:51;11.60;99.90
52034;DHT22;38045;52.988;6.536;2023-03-23T01:38:17;11.60;99.90
52034;DHT22;38045;52.988;6.536;2023-03-23T01:40:43;11.60;99.90
52034;DHT22;38045;52.988;6.536;2023-03-23T01:43:14;11.60;99.90
52034;DHT22;38045;52.988;6.536;2023-03-23T01:45:41;11.60;99.90
52034;DHT22;38045;52.988;6.536;2023-03-23T01:48:51;11.60;99.90
52034;DHT22;38045;52.988;6.536;2023-03-23T01:51:14;11.60;99.90
52034;DHT22;38045;52.988;6.536;2023-03-23T01:53:54;11.60;99.90
52034;DHT22;38045;52.988;6.536;2023-03-23T01:56:24;11.60;99.90
52034;DHT22;38045;52.988;6.536;2023-03-23T01:58:54;11.70;99.90
52034;DHT22;38045;52.988;6.536;2023-03-23T02:01:21;11.70;99.90
52034;DHT22;38045;52.988;6.536;2023-03-23T02:03:47;11.70;99.90
52034;DHT22;38045;52.988;6.536;2023-03-23T02:06:14;11.70;99.90
52034;DHT22;38045;52.988;6.536;2023-03-23T02:08:41;11.70;99.90
52034;DHT22;38045;52.988;6.536;2023-03-23T02:11:17;11.70;99.90
52034;DHT22;38045;52.988;6.536;2023-03-23T02:13:44;11.70;99.90
52034;DHT22;38045;52.988;6.536;2023-03-23T02:21:46;11.70;99.90
52034;DHT22;38045;52.988;6.536;2023-03-23T02:26:54;11.70;99.90
52034;DHT22;38045;52.988;6.536;2023-03-23T02:32:22;11.70;99.90
52034;DHT22;38045;52.988;6.536;2023-03-23T02:34:54;11.70;99.90
52034;DHT22;38045;52.988;6.536;2023-03-23T02:37:29;11.60;99.90
52034;DHT22;38045;52.988;6.536;2023-03-23T02:40:02;11.60;99.90
52034;DHT22;38045;52.988;6.536;2023-03-23T02:42:40;11.60;99.90
52034;DHT22;38045;52.988;6.536;2023-03-23T02:45:09;11.60;99.90
52034;DHT22;38045;52.988;6.536;2023-03-23T02:47:38;11.70;99.90
52034;DHT22;38045;52.988;6.536;2023-03-23T02:50:06;11.60;99.90
52034;DHT22;38045;52.988;6.536;2023-03-23T02:52:35;11.60;99.90
52034;DHT22;38045;52.988;6.536;2023-03-23T02:55:03;11.60;99.90
52034;DHT22;38045;52.988;6.536;2023-03-23T02:57:30;11.60;99.90
52034;DHT22;38045;52.988;6.536;2023-03-23T02:59:56;11.50;99.90
52034;DHT22;38045;52.988;6.536;2023-03-23T03:02:33;11.50;99.90
52034;DHT22;38045;52.988;6.536;2023-03-23T03:13:34;11.50;99.90
52034;DHT22;38045;52.988;6.536;2023-03-23T03:21:31;11.50;99.90
52034;DHT22;38045;52.988;6.536;2023-03-23T03:24:00;11.40;99.90
52034;DHT22;38045;52.988;6.536;2023-03-23T03:26:28;11.40;99.90
52034;DHT22;38045;52.988;6.536;2023-03-23T03:28:55;11.50;99.90
52034;DHT22;38045;52.988;6.536;2023-03-23T03:31:29;11.50;99.90
52034;DHT22;38045;52.988;6.536;2023-03-23T03:33:56;11.50;99.90
52034;DHT22;38045;52.988;6.536;2023-03-23T03:36:28;11.50;99.90
52034;DHT22;38045;52.988;6.536;2023-03-23T03:39:04;11.50;99.90
52034;DHT22;38045;52.988;6.536;2023-03-23T03:41:31;11.50;99.90
52034;DHT22;38045;52.988;6.536;2023-03-23T03:43:56;11.50;99.90
52034;DHT22;38045;52.988;6.536;2023-03-23T03:46:22;11.50;99.90
52034;DHT22;38045;52.988;6.536;2023-03-23T03:48:52;11.50;99.90
52034;DHT22;38045;52.988;6.536;2023-03-23T03:51:18;11.50;99.90
52034;DHT22;38045;52.988;6.536;2023-03-23T03:53:43;11.40;99.90
52034;DHT22;38045;52.988;6.536;2023-03-23T03:56:09;11.30;99.90
52034;DHT22;38045;52.988;6.536;2023-03-23T03:58:34;11.20;99.90
52034;DHT22;38045;52.988;6.536;2023-03-23T04:01:02;11.30;99.90
52034;DHT22;38045;52.988;6.536;2023-03-23T04:03:28;11.20;99.90
52034;DHT22;38045;52.988;6.536;2023-03-23T04:05:54;11.20;99.90
52034;DHT22;38045;52.988;6.536;2023-03-23T04:08:24;11.20;99.90
52034;DHT22;38045;52.988;6.536;2023-03-23T04:10:50;11.30;99.90
52034;DHT22;38045;52.988;6.536;2023-03-23T04:13:16;11.30;99.90
52034;DHT22;38045;52.988;6.536;2023-03-23T04:15:42;11.30;99.90
52034;DHT22;38045;52.988;6.536;2023-03-23T04:18:08;11.40;99.90
52034;DHT22;38045;52.988;6.536;2023-03-23T04:20:34;11.50;99.90
52034;DHT22;38045;52.988;6.536;2023-03-23T04:23:00;11.50;99.90
52034;DHT22;38045;52.988;6.536;2023-03-23T04:25:27;11.50;99.90
52034;DHT22;38045;52.988;6.536;2023-03-23T04:27:53;11.50;99.90
52034;DHT22;38045;52.988;6.536;2023-03-23T04:30:20;11.50;99.90
52034;DHT22;38045;52.988;6.536;2023-03-23T04:32:48;11.50;99.90
52034;DHT22;38045;52.988;6.536;2023-03-23T04:35:19;11.50;99.90
52034;DHT22;38045;52.988;6.536;2023-03-23T04:37:46;11.50;99.90
52034;DHT22;38045;52.988;6.536;2023-03-23T04:40:12;11.50;99.90
52034;DHT22;38045;52.988;6.536;2023-03-23T04:42:41;11.10;99.90
52034;DHT22;38045;52.988;6.536;2023-03-23T04:45:16;10.40;99.90
52034;DHT22;38045;52.988;6.536;2023-03-23T04:47:50;10.10;99.90
52034;DHT22;38045;52.988;6.536;2023-03-23T04:50:24;9.90;99.90
52034;DHT22;38045;52.988;6.536;2023-03-23T04:52:51;9.90;99.90
52034;DHT22;38045;52.988;6.536;2023-03-23T04:55:20;9.90;99.90
52034;DHT22;38045;52.988;6.536;2023-03-23T04:57:46;9.90;99.90
52034;DHT22;38045;52.988;6.536;2023-03-23T05:00:13;9.90;99.90
52034;DHT22;38045;52.988;6.536;2023-03-23T05:02:42;10.00;99.90
52034;DHT22;38045;52.988;6.536;2023-03-23T05:05:10;10.00;99.90
52034;DHT22;38045;52.988;6.536;2023-03-23T05:07:37;9.90;99.90
52034;DHT22;38045;52.988;6.536;2023-03-23T05:10:04;9.90;99.90
52034;DHT22;38045;52.988;6.536;2023-03-23T05:12:30;9.80;99.90
52034;DHT22;38045;52.988;6.536;2023-03-23T05:14:57;9.80;99.90
52034;DHT22;38045;52.988;6.536;2023-03-23T05:17:22;9.70;99.90
52034;DHT22;38045;52.988;6.536;2023-03-23T05:19:52;9.70;99.90
52034;DHT22;38045;52.988;6.536;2023-03-23T05:22:19;9.70;99.90
52034;DHT22;38045;52.988;6.536;2023-03-23T05:24:46;9.60;99.90
52034;DHT22;38045;52.988;6.536;2023-03-23T05:27:12;9.60;99.90
52034;DHT22;38045;52.988;6.536;2023-03-23T05:29:40;9.60;99.90
52034;DHT22;38045;52.988;6.536;2023-03-23T05:32:07;9.60;99.90
52034;DHT22;38045;52.988;6.536;2023-03-23T05:34:36;9.60;99.90
52034;DHT22;38045;52.988;6.536;2023-03-23T05:37:03;9.60;99.90
52034;DHT22;38045;52.988;6.536;2023-03-23T05:39:30;9.60;99.90
52034;DHT22;38045;52.988;6.536;2023-03-23T05:41:56;9.60;99.90
52034;DHT22;38045;52.988;6.536;2023-03-23T05:44:22;9.60;99.90
52034;DHT22;38045;52.988;6.536;2023-03-23T05:46:48;9.70;99.90
52034;DHT22;38045;52.988;6.536;2023-03-23T05:49:15;9.70;99.90
52034;DHT22;38045;52.988;6.536;2023-03-23T05:51:44;9.80;99.90
52034;DHT22;38045;52.988;6.536;2023-03-23T05:54:11;9.80;99.90
52034;DHT22;38045;52.988;6.536;2023-03-23T05:56:37;9.80;99.90
52034;DHT22;38045;52.988;6.536;2023-03-23T05:59:03;9.80;99.90
52034;DHT22;38045;52.988;6.536;2023-03-23T06:01:29;9.80;99.90
52034;DHT22;38045;52.988;6.536;2023-03-23T06:03:55;9.90;99.90
52034;DHT22;38045;52.988;6.536;2023-03-23T06:06:27;9.90;99.90
52034;DHT22;38045;52.988;6.536;2023-03-23T06:08:55;9.90;99.90
52034;DHT22;38045;52.988;6.536;2023-03-23T06:11:23;9.90;99.90
52034;DHT22;38045;52.988;6.536;2023-03-23T06:13:50;9.90;99.90
52034;DHT22;38045;52.988;6.536;2023-03-23T06:16:15;9.90;99.90
52034;DHT22;38045;52.988;6.536;2023-03-23T06:18:41;10.00;99.90
52034;DHT22;38045;52.988;6.536;2023-03-23T06:21:08;10.00;99.90
52034;DHT22;38045;52.988;6.536;2023-03-23T06:23:34;10.00;99.90
52034;DHT22;38045;52.988;6.536;2023-03-23T06:26:02;10.10;99.90
52034;DHT22;38045;52.988;6.536;2023-03-23T06:28:29;10.10;99.90
52034;DHT22;38045;52.988;6.536;2023-03-23T06:30:54;10.10;99.90
52034;DHT22;38045;52.988;6.536;2023-03-23T06:33:20;10.10;99.90
52034;DHT22;38045;52.988;6.536;2023-03-23T06:35:46;10.20;99.90
52034;DHT22;38045;52.988;6.536;2023-03-23T06:38:13;10.20;99.90
52034;DHT22;38045;52.988;6.536;2023-03-23T06:40:39;10.20;99.90
52034;DHT22;38045;52.988;6.536;2023-03-23T06:43:05;10.30;99.90
52034;DHT22;38045;52.988;6.536;2023-03-23T06:45:32;10.30;99.90
52034;DHT22;38045;52.988;6.536;2023-03-23T06:47:58;10.40;99.90
52034;DHT22;38045;52.988;6.536;2023-03-23T06:50:24;10.40;99.90
52034;DHT22;38045;52.988;6.536;2023-03-23T06:52:50;10.50;99.90
52034;DHT22;38045;52.988;6.536;2023-03-23T06:55:17;10.50;99.90
52034;DHT22;38045;52.988;6.536;2023-03-23T06:57:43;10.50;99.90
52034;DHT22;38045;52.988;6.536;2023-03-23T07:00:11;10.60;99.90
52034;DHT22;38045;52.988;6.536;2023-03-23T07:02:39;10.60;99.90
52034;DHT22;38045;52.988;6.536;2023-03-23T07:05:06;10.60;99.90
52034;DHT22;38045;52.988;6.536;2023-03-23T07:07:32;10.60;99.90
52034;DHT22;38045;52.988;6.536;2023-03-23T07:09:58;10.60;99.90
52034;DHT22;38045;52.988;6.536;2023-03-23T07:12:23;10.60;99.90
52034;DHT22;38045;52.988;6.536;2023-03-23T07:14:49;10.60;99.90
52034;DHT22;38045;52.988;6.536;2023-03-23T07:17:15;10.60;99.90
52034;DHT22;38045;52.988;6.536;2023-03-23T07:19:41;10.60;99.90
52034;DHT22;38045;52.988;6.536;2023-03-23T07:22:07;10.70;99.90
52034;DHT22;38045;52.988;6.536;2023-03-23T07:24:34;10.70;99.90
52034;DHT22;38045;52.988;6.536;2023-03-23T07:27:00;10.80;99.90
52034;DHT22;38045;52.988;6.536;2023-03-23T07:29:25;10.90;99.90
52034;DHT22;38045;52.988;6.536;2023-03-23T07:31:52;10.90;99.90
52034;DHT22;38045;52.988;6.536;2023-03-23T07:34:20;10.90;99.90
52034;DHT22;38045;52.988;6.536;2023-03-23T07:36:45;11.00;99.90
52034;DHT22;38045;52.988;6.536;2023-03-23T07:39:13;11.10;99.90
52034;DHT22;38045;52.988;6.536;2023-03-23T07:41:39;11.10;99.90
52034;DHT22;38045;52.988;6.536;2023-03-23T07:44:05;11.10;99.90
52034;DHT22;38045;52.988;6.536;2023-03-23T07:46:31;11.20;99.90
52034;DHT22;38045;52.988;6.536;2023-03-23T07:48:57;11.20;99.90
52034;DHT22;38045;52.988;6.536;2023-03-23T07:51:23;11.20;99.90
52034;DHT22;38045;52.988;6.536;2023-03-23T07:53:50;11.20;99.90
52034;DHT22;38045;52.988;6.536;2023-03-23T07:56:17;11.20;99.90
52034;DHT22;38045;52.988;6.536;2023-03-23T07:58:45;11.20;99.90
52034;DHT22;38045;52.988;6.536;2023-03-23T08:01:11;11.20;99.90
52034;DHT22;38045;52.988;6.536;2023-03-23T08:03:38;11.30;99.90
52034;DHT22;38045;52.988;6.536;2023-03-23T08:06:04;11.30;99.90
52034;DHT22;38045;52.988;6.536;2023-03-23T08:08:30;11.30;99.90
52034;DHT22;38045;52.988;6.536;2023-03-23T08:10:57;11.30;99.90
52034;DHT22;38045;52.988;6.536;2023-03-23T08:13:22;11.30;99.90
52034;DHT22;38045;52.988;6.536;2023-03-23T08:15:48;11.30;99.90
52034;DHT22;38045;52.988;6.536;2023-03-23T08:18:14;11.40;99.90
52034;DHT22;38045;52.988;6.536;2023-03-23T08:20:40;11.30;99.90
52034;DHT22;38045;52.988;6.536;2023-03-23T08:23:06;11.30;99.90
52034;DHT22;38045;52.988;6.536;2023-03-23T08:25:31;11.40;99.90
52034;DHT22;38045;52.988;6.536;2023-03-23T08:27:59;11.40;99.90
52034;DHT22;38045;52.988;6.536;2023-03-23T08:30:27;11.40;99.90
52034;DHT22;38045;52.988;6.536;2023-03-23T08:32:56;11.40;99.90
52034;DHT22;38045;52.988;6.536;2023-03-23T08:35:22;11.40;99.90
52034;DHT22;38045;52.988;6.536;2023-03-23T08:37:48;11.50;99.90
52034;DHT22;38045;52.988;6.536;2023-03-23T08:40:20;11.40;99.90
52034;DHT22;38045;52.988;6.536;2023-03-23T08:42:47;11.50;99.90
52034;DHT22;38045;52.988;6.536;2023-03-23T08:45:16;11.50;99.90
52034;DHT22;38045;52.988;6.536;2023-03-23T08:47:42;11.50;99.90
52034;DHT22;38045;52.988;6.536;2023-03-23T08:50:11;11.50;99.90
52034;DHT22;38045;52.988;6.536;2023-03-23T08:52:38;11.50;99.90
52034;DHT22;38045;52.988;6.536;2023-03-23T08:55:04;11.50;99.90
52034;DHT22;38045;52.988;6.536;2023-03-23T08:57:30;11.60;99.90
52034;DHT22;38045;52.988;6.536;2023-03-23T08:59:56;11.60;99.90
52034;DHT22;38045;52.988;6.536;2023-03-23T09:02:26;11.60;99.90
52034;DHT22;38045;52.988;6.536;2023-03-23T09:04:52;11.50;99.90
52034;DHT22;38045;52.988;6.536;2023-03-23T09:07:18;11.50;99.90
52034;DHT22;38045;52.988;6.536;2023-03-23T09:09:44;11.50;99.90
52034;DHT22;38045;52.988;6.536;2023-03-23T09:12:10;11.50;99.90
52034;DHT22;38045;52.988;6.536;2023-03-23T09:14:37;11.60;99.90
52034;DHT22;38045;52.988;6.536;2023-03-23T09:17:03;11.60;99.90
52034;DHT22;38045;52.988;6.536;2023-03-23T09:19:31;11.60;99.90
52034;DHT22;38045;52.988;6.536;2023-03-23T09:21:58;11.70;99.90
52034;DHT22;38045;52.988;6.536;2023-03-23T09:24:25;11.70;99.90
52034;DHT22;38045;52.988;6.536;2023-03-23T09:26:50;11.80;99.90
52034;DHT22;38045;52.988;6.536;2023-03-23T09:29:16;11.90;99.90
52034;DHT22;38045;52.988;6.536;2023-03-23T09:31:44;11.90;99.90
52034;DHT22;38045;52.988;6.536;2023-03-23T09:34:12;12.00;99.90
52034;DHT22;38045;52.988;6.536;2023-03-23T09:36:38;12.10;99.90
52034;DHT22;38045;52.988;6.536;2023-03-23T09:39:05;12.20;99.90
52034;DHT22;38045;52.988;6.536;2023-03-23T09:44:39;12.30;99.90
52034;DHT22;38045;52.988;6.536;2023-03-23T09:49:40;12.20;99.90
52034;DHT22;38045;52.988;6.536;2023-03-23T09:52:13;12.10;99.90
52034;DHT22;38045;52.988;6.536;2023-03-23T09:54:42;12.00;99.90
52034;DHT22;38045;52.988;6.536;2023-03-23T10:00:38;11.80;99.90
52034;DHT22;38045;52.988;6.536;2023-03-23T10:03:20;11.70;99.90
52034;DHT22;38045;52.988;6.536;2023-03-23T10:05:51;11.70;99.90
52034;DHT22;38045;52.988;6.536;2023-03-23T10:08:22;11.70;99.90
52034;DHT22;38045;52.988;6.536;2023-03-23T10:11:03;11.70;99.90
52034;DHT22;38045;52.988;6.536;2023-03-23T10:16:17;12.00;99.90
52034;DHT22;38045;52.988;6.536;2023-03-23T10:21:39;12.10;99.90
52034;DHT22;38045;52.988;6.536;2023-03-23T10:24:10;12.20;99.90
52034;DHT22;38045;52.988;6.536;2023-03-23T10:29:38;12.30;99.90
52034;DHT22;38045;52.988;6.536;2023-03-23T10:32:14;12.40;99.90
52034;DHT22;38045;52.988;6.536;2023-03-23T10:34:57;12.60;99.90
52034;DHT22;38045;52.988;6.536;2023-03-23T10:37:25;12.80;99.90
52034;DHT22;38045;52.988;6.536;2023-03-23T10:39:57;13.00;99.90
52034;DHT22;38045;52.988;6.536;2023-03-23T10:42:27;13.30;99.90
52034;DHT22;38045;52.988;6.536;2023-03-23T10:44:56;13.50;99.90
52034;DHT22;38045;52.988;6.536;2023-03-23T10:47:22;13.70;99.90
52034;DHT22;38045;52.988;6.536;2023-03-23T10:50:01;13.90;99.90
52034;DHT22;38045;52.988;6.536;2023-03-23T10:52:34;14.20;99.90
52034;DHT22;38045;52.988;6.536;2023-03-23T10:55:13;14.00;99.90
52034;DHT22;38045;52.988;6.536;2023-03-23T10:57:43;14.10;99.90
52034;DHT22;38045;52.988;6.536;2023-03-23T11:05:47;14.10;99.90
52034;DHT22;38045;52.988;6.536;2023-03-23T11:08:20;14.10;99.90
52034;DHT22;38045;52.988;6.536;2023-03-23T11:10:51;14.20;99.90
52034;DHT22;38045;52.988;6.536;2023-03-23T11:13:20;14.30;99.90
52034;DHT22;38045;52.988;6.536;2023-03-23T11:15:47;14.30;99.90
52034;DHT22;38045;52.988;6.536;2023-03-23T11:18:38;14.20;99.90
52034;DHT22;38045;52.988;6.536;2023-03-23T11:21:05;14.10;99.90
52034;DHT22;38045;52.988;6.536;2023-03-23T11:23:37;14.00;99.90
52034;DHT22;38045;52.988;6.536;2023-03-23T11:26:17;14.00;99.90
52034;DHT22;38045;52.988;6.536;2023-03-23T11:28:59;13.80;99.90
52034;DHT22;38045;52.988;6.536;2023-03-23T11:31:32;13.70;99.90
52034;DHT22;38045;52.988;6.536;2023-03-23T11:34:01;13.60;99.90
52034;DHT22;38045;52.988;6.536;2023-03-23T11:36:37;13.70;99.90
52034;DHT22;38045;52.988;6.536;2023-03-23T11:39:28;13.60;99.90
52034;DHT22;38045;52.988;6.536;2023-03-23T11:41:57;13.70;99.90
52034;DHT22;38045;52.988;6.536;2023-03-23T11:44:31;13.90;99.90
52034;DHT22;38045;52.988;6.536;2023-03-23T11:47:13;13.90;99.90
52034;DHT22;38045;52.988;6.536;2023-03-23T11:58:10;14.20;99.90
52034;DHT22;38045;52.988;6.536;2023-03-23T12:00:42;14.50;99.90
52034;DHT22;38045;52.988;6.536;2023-03-23T12:07:20;14.70;99.90
52034;DHT22;38045;52.988;6.536;2023-03-23T12:22:19;15.20;99.90
52034;DHT22;38045;52.988;6.536;2023-03-23T12:33:24;14.80;99.90
52034;DHT22;38045;52.988;6.536;2023-03-23T12:36:07;14.70;99.90
52034;DHT22;38045;52.988;6.536;2023-03-23T12:38:47;14.80;99.90
52034;DHT22;38045;52.988;6.536;2023-03-23T12:44:08;15.20;99.90
52034;DHT22;38045;52.988;6.536;2023-03-23T12:47:01;15.10;99.90
52034;DHT22;38045;52.988;6.536;2023-03-23T12:49:50;14.80;99.90
52034;DHT22;38045;52.988;6.536;2023-03-23T12:52:22;14.60;99.90
52034;DHT22;38045;52.988;6.536;2023-03-23T12:55:30;14.50;99.90
52034;DHT22;38045;52.988;6.536;2023-03-23T12:58:09;14.30;99.90
52034;DHT22;38045;52.988;6.536;2023-03-23T13:00:56;14.20;99.90
52034;DHT22;38045;52.988;6.536;2023-03-23T13:08:58;14.10;99.90
52034;DHT22;38045;52.988;6.536;2023-03-23T13:11:33;14.20;99.90
52034;DHT22;38045;52.988;6.536;2023-03-23T13:17:01;14.20;99.90
52034;DHT22;38045;52.988;6.536;2023-03-23T13:22:39;14.20;99.90
52034;DHT22;38045;52.988;6.536;2023-03-23T13:25:19;14.20;99.90
52034;DHT22;38045;52.988;6.536;2023-03-23T13:27:57;14.30;99.90
52034;DHT22;38045;52.988;6.536;2023-03-23T13:30:24;14.40;99.90
52034;DHT22;38045;52.988;6.536;2023-03-23T13:32:50;14.30;99.90
52034;DHT22;38045;52.988;6.536;2023-03-23T13:35:18;14.30;99.90
52034;DHT22;38045;52.988;6.536;2023-03-23T13:37:48;14.30;99.90
52034;DHT22;38045;52.988;6.536;2023-03-23T13:40:29;14.60;99.90
52034;DHT22;38045;52.988;6.536;2023-03-23T13:42:59;14.70;99.90
52034;DHT22;38045;52.988;6.536;2023-03-23T13:48:04;14.80;99.90
52034;DHT22;38045;52.988;6.536;2023-03-23T13:51:03;14.80;99.90
52034;DHT22;38045;52.988;6.536;2023-03-23T13:53:46;14.80;99.90
52034;DHT22;38045;52.988;6.536;2023-03-23T13:56:36;15.00;99.90
52034;DHT22;38045;52.988;6.536;2023-03-23T13:59:08;15.30;99.90
52034;DHT22;38045;52.988;6.536;2023-03-23T14:01:39;15.50;99.90
52034;DHT22;38045;52.988;6.536;2023-03-23T14:04:14;15.30;99.90
52034;DHT22;38045;52.988;6.536;2023-03-23T14:06:41;15.10;99.90
52034;DHT22;38045;52.988;6.536;2023-03-23T14:09:22;15.00;99.90
52034;DHT22;38045;52.988;6.536;2023-03-23T14:11:55;15.00;99.90
52034;DHT22;38045;52.988;6.536;2023-03-23T14:14:33;15.00;99.90
52034;DHT22;38045;52.988;6.536;2023-03-23T14:17:24;14.80;99.90
52034;DHT22;38045;52.988;6.536;2023-03-23T14:19:52;14.60;99.90
52034;DHT22;38045;52.988;6.536;2023-03-23T14:24:50;14.50;99.90
52034;DHT22;38045;52.988;6.536;2023-03-23T14:27:21;14.60;99.90
52034;DHT22;38045;52.988;6.536;2023-03-23T14:30:01;14.60;99.90
52034;DHT22;38045;52.988;6.536;2023-03-23T14:32:29;14.60;99.90
52034;DHT22;38045;52.988;6.536;2023-03-23T14:34:56;14.60;99.90
52034;DHT22;38045;52.988;6.536;2023-03-23T14:37:23;14.80;99.90
52034;DHT22;38045;52.988;6.536;2023-03-23T14:39:51;14.90;99.90
52034;DHT22;38045;52.988;6.536;2023-03-23T14:42:31;15.00;99.90
52034;DHT22;38045;52.988;6.536;2023-03-23T14:44:57;15.10;99.90
52034;DHT22;38045;52.988;6.536;2023-03-23T14:47:29;15.20;99.90
52034;DHT22;38045;52.988;6.536;2023-03-23T14:49:58;15.10;99.90
52034;DHT22;38045;52.988;6.536;2023-03-23T14:52:29;15.20;99.90
52034;DHT22;38045;52.988;6.536;2023-03-23T14:54:55;15.30;99.90
52034;DHT22;38045;52.988;6.536;2023-03-23T14:59:49;15.40;99.90
52034;DHT22;38045;52.988;6.536;2023-03-23T15:02:35;15.40;99.90
52034;DHT22;38045;52.988;6.536;2023-03-23T15:05:33;15.90;99.90
52034;DHT22;38045;52.988;6.536;2023-03-23T15:08:03;16.30;99.90
52034;DHT22;38045;52.988;6.536;2023-03-23T15:10:30;15.90;99.90
52034;DHT22;38045;52.988;6.536;2023-03-23T15:12:56;15.60;99.90
52034;DHT22;38045;52.988;6.536;2023-03-23T15:15:31;15.50;99.90
52034;DHT22;38045;52.988;6.536;2023-03-23T15:17:59;15.30;99.90
52034;DHT22;38045;52.988;6.536;2023-03-23T15:22:56;15.50;99.90
52034;DHT22;38045;52.988;6.536;2023-03-23T15:25:31;15.60;99.90
52034;DHT22;38045;52.988;6.536;2023-03-23T15:28:19;15.70;99.90
52034;DHT22;38045;52.988;6.536;2023-03-23T15:30:53;16.00;99.90
52034;DHT22;38045;52.988;6.536;2023-03-23T15:33:19;16.30;99.90
52034;DHT22;38045;52.988;6.536;2023-03-23T15:35:52;16.50;99.90
52034;DHT22;38045;52.988;6.536;2023-03-23T15:38:23;16.60;99.90
52034;DHT22;38045;52.988;6.536;2023-03-23T15:40:53;16.60;99.90
52034;DHT22;38045;52.988;6.536;2023-03-23T15:45:59;16.50;99.90
52034;DHT22;38045;52.988;6.536;2023-03-23T15:48:33;16.40;99.90
52034;DHT22;38045;52.988;6.536;2023-03-23T15:51:02;16.10;99.90
52034;DHT22;38045;52.988;6.536;2023-03-23T15:53:36;16.00;99.90
52034;DHT22;38045;52.988;6.536;2023-03-23T15:56:05;16.10;99.90
52034;DHT22;38045;52.988;6.536;2023-03-23T15:58:31;16.10;99.90
52034;DHT22;38045;52.988;6.536;2023-03-23T16:00:58;16.10;99.90
52034;DHT22;38045;52.988;6.536;2023-03-23T16:03:28;15.90;99.90
52034;DHT22;38045;52.988;6.536;2023-03-23T16:05:55;15.70;99.90
52034;DHT22;38045;52.988;6.536;2023-03-23T16:08:22;15.60;99.90
52034;DHT22;38045;52.988;6.536;2023-03-23T16:10:48;15.50;99.90
52034;DHT22;38045;52.988;6.536;2023-03-23T16:13:13;15.50;99.90
52034;DHT22;38045;52.988;6.536;2023-03-23T16:15:39;15.40;99.90
52034;DHT22;38045;52.988;6.536;2023-03-23T16:18:05;15.20;99.90
52034;DHT22;38045;52.988;6.536;2023-03-23T16:20:31;15.30;99.90
52034;DHT22;38045;52.988;6.536;2023-03-23T16:22:58;15.30;99.90
52034;DHT22;38045;52.988;6.536;2023-03-23T16:25:24;15.30;99.90
52034;DHT22;38045;52.988;6.536;2023-03-23T16:27:50;15.00;99.90
52034;DHT22;38045;52.988;6.536;2023-03-23T16:30:18;14.80;99.90
52034;DHT22;38045;52.988;6.536;2023-03-23T16:32:44;14.80;99.90
52034;DHT22;38045;52.988;6.536;2023-03-23T16:35:12;14.70;99.90
52034;DHT22;38045;52.988;6.536;2023-03-23T16:37:38;14.60;99.90
52034;DHT22;38045;52.988;6.536;2023-03-23T16:40:05;14.60;99.90
52034;DHT22;38045;52.988;6.536;2023-03-23T16:42:31;14.50;99.90
52034;DHT22;38045;52.988;6.536;2023-03-23T16:44:57;14.50;99.90
52034;DHT22;38045;52.988;6.536;2023-03-23T16:47:23;14.50;99.90
52034;DHT22;38045;52.988;6.536;2023-03-23T16:49:50;14.60;99.90
52034;DHT22;38045;52.988;6.536;2023-03-23T16:52:17;14.60;99.90
52034;DHT22;38045;52.988;6.536;2023-03-23T16:54:42;14.50;99.90
52034;DHT22;38045;52.988;6.536;2023-03-23T16:57:08;14.30;99.90
52034;DHT22;38045;52.988;6.536;2023-03-23T16:59:34;14.30;99.90
52034;DHT22;38045;52.988;6.536;2023-03-23T17:02:00;14.10;99.90
52034;DHT22;38045;52.988;6.536;2023-03-23T17:04:31;14.00;99.90
52034;DHT22;38045;52.988;6.536;2023-03-23T17:06:57;13.80;99.90
52034;DHT22;38045;52.988;6.536;2023-03-23T17:09:24;13.80;99.90
52034;DHT22;38045;52.988;6.536;2023-03-23T17:11:50;13.70;99.90
52034;DHT22;38045;52.988;6.536;2023-03-23T17:14:16;13.60;99.90
52034;DHT22;38045;52.988;6.536;2023-03-23T17:16:42;13.50;99.90
52034;DHT22;38045;52.988;6.536;2023-03-23T17:19:07;13.80;99.90
52034;DHT22;38045;52.988;6.536;2023-03-23T17:21:33;13.50;99.90
52034;DHT22;38045;52.988;6.536;2023-03-23T17:23:59;13.40;99.90
52034;DHT22;38045;52.988;6.536;2023-03-23T17:26:24;13.40;99.90
52034;DHT22;38045;52.988;6.536;2023-03-23T17:28:50;13.40;99.90
52034;DHT22;38045;52.988;6.536;2023-03-23T17:31:16;13.40;99.90
52034;DHT22;38045;52.988;6.536;2023-03-23T17:33:41;13.40;99.90
52034;DHT22;38045;52.988;6.536;2023-03-23T17:36:07;13.40;99.90